createdAt,value
2024-02-05T00:00:21.156Z,4.24
2024-02-05T00:02:49.952Z,4.23
2024-02-05T00:05:18.989Z,4.17
2024-02-05T00:07:48.878Z,4.18
2024-02-05T00:10:18.011Z,4.15
2024-02-05T00:12:46.904Z,4.15
2024-02-05T00:15:17.058Z,4.16
2024-02-05T00:17:46.198Z,4.11
2024-02-05T00:20:15.098Z,4.16
2024-02-05T00:22:44.346Z,4.14
2024-02-05T00:25:14.967Z,4.13
2024-02-05T00:27:43.859Z,4.05
2024-02-05T00:30:13.324Z,4.08
2024-02-05T00:32:42.287Z,4.06
2024-02-05T00:35:11.092Z,4.04
2024-02-05T00:37:40.426Z,4.05
2024-02-05T00:40:10.837Z,4.03
2024-02-05T00:42:41.371Z,4.07
2024-02-05T00:45:11.382Z,4.06
2024-02-05T00:47:42.208Z,4.11
2024-02-05T00:50:11.629Z,4.08
2024-02-05T00:52:40.003Z,4.05
2024-02-05T00:55:09.445Z,4.06
2024-02-05T00:57:38.484Z,4.06
2024-02-05T01:00:10.723Z,4.08
2024-02-05T01:02:39.543Z,4.15
2024-02-05T01:05:09.241Z,4.15
2024-02-05T01:07:38.039Z,4.18
2024-02-05T01:10:07.868Z,4.17
2024-02-05T01:12:36.612Z,4.18
2024-02-05T01:15:06.255Z,4.23
2024-02-05T01:17:36.433Z,4.27
2024-02-05T01:20:12.033Z,4.32
2024-02-05T01:22:41.125Z,4.30
2024-02-05T01:25:10.526Z,4.33
2024-02-05T01:27:39.440Z,4.39
2024-02-05T01:30:09.562Z,4.40
2024-02-05T01:32:39.942Z,4.45
2024-02-05T01:35:09.277Z,4.46
2024-02-05T01:37:38.176Z,4.49
2024-02-05T01:40:11.566Z,4.52
2024-02-05T01:42:42.457Z,4.57
2024-02-05T01:45:12.040Z,4.61
2024-02-05T01:47:43.884Z,4.67
2024-02-05T01:50:14.818Z,4.70
2024-02-05T01:52:46.542Z,4.74
2024-02-05T01:55:18.167Z,4.77
2024-02-05T01:57:51.754Z,4.79
2024-02-05T02:00:21.129Z,4.85
2024-02-05T02:02:51.626Z,4.90
2024-02-05T02:05:21.107Z,4.94
2024-02-05T02:07:50.063Z,4.90
2024-02-05T02:10:19.210Z,4.89
2024-02-05T02:12:48.504Z,4.93
2024-02-05T02:15:17.560Z,4.96
2024-02-05T02:17:47.929Z,5.00
2024-02-05T02:20:21.155Z,4.98
2024-02-05T02:22:56.131Z,4.98
2024-02-05T02:25:26.763Z,4.93
2024-02-05T02:27:55.771Z,4.89
2024-02-05T02:30:25.290Z,4.84
2024-02-05T02:33:02.074Z,4.83
2024-02-05T02:35:35.675Z,4.82
2024-02-05T02:38:11.195Z,4.86
2024-02-05T02:40:42.833Z,4.87
2024-02-05T02:43:12.759Z,4.83
2024-02-05T02:45:41.983Z,4.80
2024-02-05T02:48:11.207Z,4.81
2024-02-05T02:50:40.216Z,4.83
2024-02-05T02:53:09.216Z,4.88
2024-02-05T02:55:37.980Z,4.86
2024-02-05T02:58:08.565Z,4.85
2024-02-05T03:00:37.748Z,4.84
2024-02-05T03:03:07.235Z,4.82
2024-02-05T03:05:36.315Z,4.80
2024-02-05T03:08:05.827Z,4.79
2024-02-05T03:10:34.141Z,4.77
2024-02-05T03:13:02.974Z,4.75
2024-02-05T03:15:33.220Z,4.76
2024-02-05T03:18:01.954Z,4.72
2024-02-05T03:20:35.698Z,4.69
2024-02-05T03:23:09.019Z,4.66
2024-02-05T03:25:40.224Z,4.63
2024-02-05T03:28:10.283Z,4.60
2024-02-05T03:30:40.776Z,4.59
2024-02-05T03:33:09.652Z,4.57
2024-02-05T03:35:38.824Z,4.58
2024-02-05T03:38:07.821Z,4.59
2024-02-05T03:40:36.812Z,4.58
2024-02-05T03:43:06.090Z,4.60
2024-02-05T03:45:34.861Z,4.64
2024-02-05T03:48:05.524Z,4.66
2024-02-05T03:50:34.350Z,4.67
2024-02-05T03:53:03.835Z,4.71
2024-02-05T03:55:32.162Z,4.75
2024-02-05T03:58:03.762Z,4.75
2024-02-05T04:00:32.905Z,4.78
2024-02-05T04:03:01.756Z,4.80
2024-02-05T04:05:33.272Z,4.81
2024-02-05T04:08:02.488Z,4.80
2024-02-05T04:10:31.366Z,4.76
2024-02-05T04:13:00.422Z,4.77
2024-02-05T04:15:29.290Z,4.75
2024-02-05T04:17:58.504Z,4.78
2024-02-05T04:20:27.482Z,4.77
2024-02-05T04:22:57.315Z,4.77
2024-02-05T04:25:26.089Z,4.81
2024-02-05T04:27:55.421Z,4.83
2024-02-05T04:30:30.153Z,4.85
2024-02-05T04:32:59.126Z,4.88
2024-02-05T04:35:27.944Z,4.90
2024-02-05T04:37:57.697Z,4.91
2024-02-05T04:40:26.331Z,4.92
2024-02-05T04:42:55.163Z,4.94
2024-02-05T04:45:24.176Z,4.97
2024-02-05T04:47:53.067Z,4.98
2024-02-05T04:50:22.018Z,4.98
2024-02-05T04:52:50.499Z,5.00
2024-02-05T04:55:20.781Z,5.02
2024-02-05T04:57:51.070Z,5.05
2024-02-05T05:00:22.797Z,5.07
2024-02-05T05:02:52.020Z,5.05
2024-02-05T05:05:22.060Z,5.06
2024-02-05T05:07:50.496Z,5.04
2024-02-05T05:10:20.937Z,5.03
2024-02-05T05:12:49.891Z,5.02
2024-02-05T05:15:18.915Z,5.00
2024-02-05T05:17:48.124Z,5.00
2024-02-05T05:20:17.078Z,5.02
2024-02-05T05:22:45.406Z,5.01
2024-02-05T05:25:14.338Z,4.94
2024-02-05T05:27:44.678Z,4.92
2024-02-05T05:30:14.485Z,4.95
2024-02-05T05:32:43.330Z,4.96
2024-02-05T05:35:12.819Z,5.02
2024-02-05T05:37:41.872Z,5.03
2024-02-05T05:40:11.768Z,5.05
2024-02-05T05:42:40.842Z,5.03
2024-02-05T05:45:11.372Z,5.03
2024-02-05T05:47:40.834Z,5.05
2024-02-05T05:50:12.158Z,5.04
2024-02-05T05:52:40.825Z,5.06
2024-02-05T05:55:11.123Z,5.07
2024-02-05T05:57:40.393Z,5.06
2024-02-05T06:00:12.048Z,5.05
2024-02-05T06:02:41.415Z,5.03
2024-02-05T06:05:11.620Z,5.00
2024-02-05T06:07:40.770Z,4.98
2024-02-05T06:10:11.189Z,4.98
2024-02-05T06:12:40.202Z,5.00
2024-02-05T06:15:11.488Z,5.04
2024-02-05T06:17:40.914Z,5.08
2024-02-05T06:20:13.014Z,5.08
2024-02-05T06:22:43.809Z,5.11
2024-02-05T06:25:12.805Z,5.15
2024-02-05T06:27:42.599Z,5.21
2024-02-05T06:30:14.128Z,5.25
2024-02-05T06:32:43.084Z,5.26
2024-02-05T06:35:12.243Z,5.30
2024-02-05T06:37:40.792Z,5.30
2024-02-05T06:40:10.853Z,5.32
2024-02-05T06:42:39.806Z,5.35
2024-02-05T06:45:11.449Z,5.39
2024-02-05T06:47:42.334Z,5.42
2024-02-05T06:50:11.998Z,5.42
2024-02-05T06:52:40.392Z,5.45
2024-02-05T06:55:10.037Z,5.48
2024-02-05T06:57:39.056Z,5.49
2024-02-05T07:00:12.142Z,5.49
2024-02-05T07:02:42.674Z,5.49
2024-02-05T07:05:12.839Z,5.48
2024-02-05T07:07:41.477Z,5.49
2024-02-05T07:10:11.391Z,5.50
2024-02-05T07:12:40.656Z,5.56
2024-02-05T07:15:10.116Z,5.58
2024-02-05T07:17:39.158Z,5.62
2024-02-05T07:20:10.562Z,5.68
2024-02-05T07:22:39.002Z,5.72
2024-02-05T07:25:08.741Z,5.75
2024-02-05T07:27:39.157Z,5.78
2024-02-05T07:30:10.007Z,5.82
2024-02-05T07:32:39.263Z,5.87
2024-02-05T07:35:10.057Z,5.90
2024-02-05T07:37:39.136Z,5.94
2024-02-05T07:40:09.281Z,5.97
2024-02-05T07:42:38.148Z,5.99
2024-02-05T07:45:07.473Z,5.97
2024-02-05T07:47:36.414Z,5.96
2024-02-05T07:50:05.873Z,5.91
2024-02-05T07:52:35.681Z,5.71
2024-02-05T07:55:08.024Z,5.65
2024-02-05T07:57:37.802Z,5.76
2024-02-05T08:00:07.705Z,6.12
2024-02-05T08:02:42.842Z,6.17
2024-02-05T08:05:11.949Z,6.18
2024-02-05T08:07:41.878Z,6.20
2024-02-05T08:10:11.458Z,6.24
2024-02-05T08:12:40.659Z,6.29
2024-02-05T08:15:10.523Z,6.30
2024-02-05T08:17:39.603Z,6.28
2024-02-05T08:20:10.655Z,6.30
2024-02-05T08:22:39.213Z,6.25
2024-02-05T08:25:10.447Z,6.24
2024-02-05T08:27:39.266Z,6.23
2024-02-05T08:30:10.076Z,6.25
2024-02-05T08:32:39.010Z,6.27
2024-02-05T08:35:08.260Z,6.39
2024-02-05T08:37:36.745Z,6.49
2024-02-05T08:40:06.362Z,6.60
2024-02-05T08:42:36.783Z,6.70
2024-02-05T08:45:06.689Z,6.69
2024-02-05T08:47:35.586Z,6.69
2024-02-05T08:50:05.029Z,6.62
2024-02-05T08:52:33.892Z,6.53
2024-02-05T08:55:03.168Z,6.64
2024-02-05T08:57:31.988Z,6.56
2024-02-05T09:00:02.453Z,6.46
2024-02-05T09:02:31.386Z,6.51
2024-02-05T09:05:00.643Z,6.47
2024-02-05T09:07:30.920Z,6.57
2024-02-05T09:10:00.340Z,6.55
2024-02-05T09:12:29.169Z,6.59
2024-02-05T09:14:58.152Z,6.77
2024-02-05T09:17:28.466Z,6.73
2024-02-05T09:19:56.991Z,6.52
2024-02-05T09:22:26.021Z,6.51
2024-02-05T09:24:55.087Z,6.42
2024-02-05T09:27:23.929Z,6.50
2024-02-05T09:29:52.940Z,6.65
2024-02-05T09:32:21.897Z,6.73
2024-02-05T09:34:51.839Z,6.77
2024-02-05T09:37:20.782Z,6.79
2024-02-05T09:39:49.782Z,6.78
2024-02-05T09:42:18.680Z,6.95
2024-02-05T09:44:48.180Z,7.01
2024-02-05T09:47:19.565Z,6.88
2024-02-05T09:49:49.437Z,7.01
2024-02-05T09:52:19.558Z,7.09
2024-02-05T09:54:49.031Z,7.05
2024-02-05T09:57:19.455Z,6.90
2024-02-05T09:59:48.290Z,6.72
2024-02-05T10:02:18.098Z,6.48
2024-02-05T10:04:46.928Z,5.98
2024-02-05T10:07:17.510Z,5.62
2024-02-05T10:09:48.661Z,5.40
2024-02-05T10:12:18.556Z,5.34
2024-02-05T10:14:47.441Z,5.39
2024-02-05T10:17:18.760Z,5.62
2024-02-05T10:19:47.342Z,6.01
2024-02-05T10:22:16.295Z,6.30
2024-02-05T10:24:45.148Z,6.58
2024-02-05T10:27:19.093Z,6.72
2024-02-05T10:29:48.266Z,6.78
2024-02-05T10:32:23.665Z,6.84
2024-02-05T10:34:54.060Z,6.89
2024-02-05T10:37:24.592Z,6.93
2024-02-05T10:40:06.086Z,6.97
2024-02-05T10:42:36.564Z,6.92
2024-02-05T10:45:07.155Z,6.89
2024-02-05T10:47:36.420Z,6.82
2024-02-05T10:50:08.715Z,6.80
2024-02-05T10:52:37.556Z,6.83
2024-02-05T10:55:08.252Z,6.93
2024-02-05T10:57:41.289Z,6.83
2024-02-05T11:00:11.168Z,6.81
2024-02-05T11:02:43.198Z,6.80
2024-02-05T11:05:13.663Z,6.76
2024-02-05T11:07:50.393Z,6.72
2024-02-05T11:10:24.127Z,6.71
2024-02-05T11:12:59.761Z,6.76
2024-02-05T11:15:32.086Z,6.73
2024-02-05T11:18:02.817Z,6.65
2024-02-05T11:20:32.714Z,6.73
2024-02-05T11:23:04.239Z,6.78
2024-02-05T11:25:33.514Z,6.77
2024-02-05T11:28:04.079Z,6.90
2024-02-05T11:30:32.993Z,6.92
2024-02-05T11:33:01.819Z,7.02
2024-02-05T11:35:31.402Z,6.97
2024-02-05T11:38:10.569Z,6.97
2024-02-05T11:40:40.180Z,6.98
2024-02-05T11:43:11.496Z,6.97
2024-02-05T11:45:40.474Z,6.93
2024-02-05T11:48:11.253Z,6.88
2024-02-05T11:50:40.211Z,6.84
2024-02-05T11:53:09.051Z,6.83
2024-02-05T11:55:37.847Z,6.72
2024-02-05T11:58:06.812Z,6.79
2024-02-05T12:00:37.265Z,6.94
2024-02-05T12:03:07.514Z,6.98
2024-02-05T12:05:37.671Z,6.99
2024-02-05T12:08:08.895Z,7.08
2024-02-05T12:10:37.459Z,7.02
2024-02-05T12:13:06.655Z,6.98
2024-02-05T12:15:38.984Z,6.92
2024-02-05T12:18:08.551Z,6.96
2024-02-05T12:20:37.608Z,6.93
2024-02-05T12:23:06.856Z,6.97
2024-02-05T12:25:41.668Z,6.92
2024-02-05T12:28:15.664Z,6.94
2024-02-05T12:30:46.369Z,6.90
2024-02-05T12:33:18.314Z,6.93
2024-02-05T12:35:57.549Z,6.91
2024-02-05T12:38:29.981Z,6.90
2024-02-05T12:41:00.867Z,6.89
2024-02-05T12:43:31.265Z,6.90
2024-02-05T12:46:01.891Z,6.90
2024-02-05T12:48:31.300Z,6.90
2024-02-05T12:51:00.189Z,6.87
2024-02-05T12:53:29.042Z,6.87
2024-02-05T12:55:59.669Z,6.88
2024-02-05T12:58:28.981Z,6.85
2024-02-05T13:00:58.519Z,6.84
2024-02-05T13:03:34.314Z,6.82
2024-02-05T13:06:03.753Z,6.79
2024-02-05T13:08:32.784Z,6.83
2024-02-05T13:11:05.135Z,6.77
2024-02-05T13:13:33.924Z,6.70
2024-02-05T13:16:03.087Z,6.66
2024-02-05T13:18:33.543Z,6.66
2024-02-05T13:21:02.516Z,6.56
2024-02-05T13:23:31.524Z,6.54
2024-02-05T13:26:04.768Z,6.54
2024-02-05T13:28:33.353Z,6.57
2024-02-05T13:31:02.180Z,6.46
2024-02-05T13:33:31.053Z,6.35
2024-02-05T13:36:02.283Z,6.34
2024-02-05T13:38:31.253Z,6.36
2024-02-05T13:40:59.984Z,6.32
2024-02-05T13:43:28.690Z,6.34
2024-02-05T13:45:57.564Z,6.23
2024-02-05T13:48:26.977Z,6.08
2024-02-05T13:50:55.808Z,6.02
2024-02-05T13:53:26.622Z,5.95
2024-02-05T13:55:54.958Z,5.79
2024-02-05T13:58:23.942Z,5.57
2024-02-05T14:00:52.961Z,5.40
2024-02-05T14:03:22.036Z,5.37
2024-02-05T14:05:51.132Z,5.44
2024-02-05T14:08:20.149Z,5.49
2024-02-05T14:10:51.036Z,5.47
2024-02-05T14:13:21.272Z,5.47
2024-02-05T14:15:51.194Z,5.47
2024-02-05T14:18:22.057Z,5.47
2024-02-05T14:20:51.090Z,5.47
2024-02-05T14:23:19.872Z,5.47
2024-02-05T14:25:49.776Z,5.50
2024-02-05T14:28:18.477Z,5.53
2024-02-05T14:30:48.757Z,5.57
2024-02-05T14:33:17.772Z,5.56
2024-02-05T14:35:46.583Z,5.52
2024-02-05T14:38:15.436Z,5.50
2024-02-05T14:40:43.881Z,5.41
2024-02-05T14:43:14.206Z,5.35
2024-02-05T14:45:43.193Z,5.33
2024-02-05T14:48:13.175Z,5.29
2024-02-05T14:50:42.331Z,5.23
2024-02-05T14:53:11.289Z,5.19
2024-02-05T14:55:40.093Z,5.16
2024-02-05T14:58:09.765Z,5.12
2024-02-05T15:00:40.196Z,5.11
2024-02-05T15:03:08.845Z,5.11
2024-02-05T15:05:38.444Z,5.06
2024-02-05T15:08:07.751Z,5.05
2024-02-05T15:10:36.768Z,4.98
2024-02-05T15:13:07.854Z,4.82
2024-02-05T15:15:36.707Z,4.82
2024-02-05T15:18:11.573Z,4.83
2024-02-05T15:20:40.515Z,4.79
2024-02-05T15:23:09.297Z,4.81
2024-02-05T15:25:39.550Z,4.73
2024-02-05T15:28:08.870Z,4.74
2024-02-05T15:30:37.660Z,4.73
2024-02-05T15:33:10.876Z,4.71
2024-02-05T15:35:41.924Z,4.66
2024-02-05T15:38:11.708Z,4.66
2024-02-05T15:40:40.165Z,4.65
2024-02-05T15:43:08.999Z,4.65
2024-02-05T15:45:38.279Z,4.65
2024-02-05T15:48:09.636Z,4.65
2024-02-05T15:50:38.578Z,4.65
2024-02-05T15:53:07.450Z,4.62
2024-02-05T15:55:35.967Z,4.58
2024-02-05T15:58:08.294Z,4.57
2024-02-05T16:00:37.348Z,4.57
2024-02-05T16:03:06.706Z,4.55
2024-02-05T16:05:36.952Z,4.48
2024-02-05T16:08:06.487Z,4.47
2024-02-05T16:10:36.698Z,4.47
2024-02-05T16:13:06.483Z,4.44
2024-02-05T16:15:35.317Z,4.46
2024-02-05T16:18:04.885Z,4.42
2024-02-05T16:20:35.918Z,4.39
2024-02-05T16:23:06.785Z,4.38
2024-02-05T16:25:35.782Z,4.31
2024-02-05T16:28:04.752Z,4.25
2024-02-05T16:30:35.167Z,4.16
2024-02-05T16:33:04.923Z,4.11
2024-02-05T16:35:33.909Z,4.10
2024-02-05T16:38:03.640Z,4.03
2024-02-05T16:40:33.363Z,4.00
2024-02-05T16:43:02.345Z,3.98
2024-02-05T16:45:31.845Z,3.96
2024-02-05T16:48:03.118Z,3.95
2024-02-05T16:50:32.176Z,3.93
2024-02-05T16:53:01.195Z,3.92
2024-02-05T16:55:32.065Z,3.90
2024-02-05T16:58:03.336Z,3.88
2024-02-05T17:00:32.614Z,3.83
2024-02-05T17:03:01.417Z,3.82
2024-02-05T17:05:35.403Z,3.81
2024-02-05T17:08:04.901Z,3.83
2024-02-05T17:10:33.427Z,3.82
2024-02-05T17:13:04.219Z,3.81
2024-02-05T17:15:35.004Z,3.78
2024-02-05T17:18:04.040Z,3.76
2024-02-05T17:20:33.771Z,3.77
2024-02-05T17:23:03.722Z,3.75
2024-02-05T17:25:32.258Z,3.73
2024-02-05T17:28:01.196Z,3.74
2024-02-05T17:30:31.470Z,3.74
2024-02-05T17:33:00.940Z,3.76
2024-02-05T17:35:30.257Z,3.75
2024-02-05T17:37:59.286Z,3.75
2024-02-05T17:40:28.245Z,3.75
2024-02-05T17:42:57.314Z,3.75
2024-02-05T17:45:26.071Z,3.74
2024-02-05T17:47:56.444Z,3.74
2024-02-05T17:50:25.341Z,3.76
2024-02-05T17:52:53.673Z,3.73
2024-02-05T17:55:22.606Z,3.73
2024-02-05T17:57:51.630Z,3.71
2024-02-05T18:00:22.226Z,3.69
2024-02-05T18:02:51.084Z,3.71
2024-02-05T18:05:21.452Z,3.66
2024-02-05T18:07:49.966Z,3.63
2024-02-05T18:10:19.603Z,3.62
2024-02-05T18:12:48.567Z,3.59
2024-02-05T18:15:17.576Z,3.54
2024-02-05T18:17:46.631Z,3.52
2024-02-05T18:20:15.739Z,3.48
2024-02-05T18:22:45.665Z,3.47
2024-02-05T18:25:14.404Z,3.46
2024-02-05T18:27:43.355Z,3.44
2024-02-05T18:30:12.917Z,3.48
2024-02-05T18:32:41.797Z,3.50
2024-02-05T18:35:12.934Z,3.49
2024-02-05T18:37:42.242Z,3.47
2024-02-05T18:40:14.078Z,3.46
2024-02-05T18:42:43.342Z,3.47
2024-02-05T18:45:13.066Z,3.47
2024-02-05T18:47:41.871Z,3.48
2024-02-05T18:50:12.367Z,3.45
2024-02-05T18:52:41.086Z,3.40
2024-02-05T18:55:10.512Z,3.38
2024-02-05T18:57:41.726Z,3.35
2024-02-05T19:00:11.600Z,3.36
2024-02-05T19:02:40.371Z,3.32
2024-02-05T19:05:09.861Z,3.29
2024-02-05T19:07:38.603Z,3.29
2024-02-05T19:10:10.041Z,3.27
2024-02-05T19:12:41.498Z,3.26
2024-02-05T19:15:10.722Z,3.20
2024-02-05T19:17:39.577Z,3.20
2024-02-05T19:20:10.920Z,3.20
2024-02-05T19:22:39.608Z,3.18
2024-02-05T19:25:09.217Z,3.11
2024-02-05T19:27:38.290Z,3.10
2024-02-05T19:30:14.252Z,3.12
2024-02-05T19:32:43.163Z,3.08
2024-02-05T19:35:12.403Z,3.04
2024-02-05T19:37:41.096Z,3.01
2024-02-05T19:40:10.634Z,2.97
2024-02-05T19:42:39.474Z,2.98
2024-02-05T19:45:10.742Z,2.97
2024-02-05T19:47:39.788Z,3.01
2024-02-05T19:50:10.091Z,3.03
2024-02-05T19:52:38.578Z,3.02
2024-02-05T19:55:11.294Z,3.05
2024-02-05T19:57:41.099Z,3.04
2024-02-05T20:00:13.273Z,3.01
2024-02-05T20:02:42.200Z,3.01
2024-02-05T20:05:11.234Z,3.00
2024-02-05T20:07:40.118Z,3.00
2024-02-05T20:10:11.570Z,3.02
2024-02-05T20:12:40.565Z,3.02
2024-02-05T20:15:11.135Z,3.00
2024-02-05T20:17:40.057Z,3.00
2024-02-05T20:20:09.925Z,2.94
2024-02-05T20:22:38.451Z,2.96
2024-02-05T20:25:07.774Z,2.96
2024-02-05T20:27:39.030Z,2.94
2024-02-05T20:30:09.185Z,2.91
2024-02-05T20:32:39.554Z,2.89
2024-02-05T20:35:09.275Z,2.92
2024-02-05T20:37:38.189Z,2.91
2024-02-05T20:40:09.202Z,2.93
2024-02-05T20:42:39.519Z,2.92
2024-02-05T20:45:09.599Z,2.89
2024-02-05T20:47:40.032Z,2.89
2024-02-05T20:50:09.835Z,2.91
2024-02-05T20:52:38.324Z,2.96
2024-02-05T20:55:07.710Z,3.02
2024-02-05T20:57:36.484Z,3.10
2024-02-05T21:00:06.014Z,3.17
2024-02-05T21:02:34.816Z,3.17
2024-02-05T21:05:06.071Z,3.18
2024-02-05T21:07:35.290Z,3.22
2024-02-05T21:10:08.041Z,3.24
2024-02-05T21:12:39.671Z,3.29
2024-02-05T21:15:09.236Z,3.32
2024-02-05T21:17:38.243Z,3.30
2024-02-05T21:20:10.002Z,3.30
2024-02-05T21:22:38.614Z,3.31
2024-02-05T21:25:07.833Z,3.33
2024-02-05T21:27:36.763Z,3.33
2024-02-05T21:30:06.436Z,3.33
2024-02-05T21:32:35.525Z,3.28
2024-02-05T21:35:07.731Z,3.30
2024-02-05T21:37:37.570Z,3.35
2024-02-05T21:40:06.846Z,3.34
2024-02-05T21:42:35.804Z,3.26
2024-02-05T21:45:05.124Z,3.26
2024-02-05T21:47:34.041Z,3.23
2024-02-05T21:50:03.066Z,3.25
2024-02-05T21:52:31.626Z,3.23
2024-02-05T21:55:01.972Z,3.23
2024-02-05T21:57:30.921Z,3.28
2024-02-05T21:59:59.705Z,3.29
2024-02-05T22:02:28.542Z,3.21
2024-02-05T22:04:57.565Z,3.20
2024-02-05T22:07:26.605Z,3.22
2024-02-05T22:09:56.098Z,3.26
2024-02-05T22:12:27.592Z,3.33
2024-02-05T22:14:57.339Z,3.39
2024-02-05T22:17:26.320Z,3.40
2024-02-05T22:19:54.747Z,3.43
2024-02-05T22:22:23.691Z,3.46
2024-02-05T22:24:52.525Z,3.48
2024-02-05T22:27:21.513Z,3.41
2024-02-05T22:29:51.613Z,3.40
2024-02-05T22:32:20.253Z,3.38
2024-02-05T22:34:49.275Z,3.37
2024-02-05T22:37:18.441Z,3.33
2024-02-05T22:39:47.206Z,3.30
2024-02-05T22:42:16.046Z,3.33
2024-02-05T22:44:44.794Z,3.39
2024-02-05T22:47:15.027Z,3.43
2024-02-05T22:49:43.889Z,3.43
2024-02-05T22:52:13.850Z,3.46
2024-02-05T22:54:42.710Z,3.51
2024-02-05T22:57:12.687Z,3.53
2024-02-05T22:59:41.480Z,3.53
2024-02-05T23:02:12.768Z,3.55
2024-02-05T23:04:42.792Z,3.61
2024-02-05T23:07:13.641Z,3.64
2024-02-05T23:09:42.521Z,3.66
2024-02-05T23:12:11.339Z,3.68
2024-02-05T23:14:40.312Z,3.72
2024-02-05T23:17:10.452Z,3.77
2024-02-05T23:19:38.788Z,3.84
2024-02-05T23:22:09.015Z,4.05
2024-02-05T23:24:38.325Z,4.23
2024-02-05T23:27:07.145Z,4.39
2024-02-05T23:29:35.963Z,4.57
2024-02-05T23:32:05.657Z,4.72
2024-02-05T23:34:34.103Z,4.84
2024-02-05T23:37:03.050Z,5.20
2024-02-05T23:39:33.164Z,5.33
2024-02-05T23:42:01.858Z,5.45
2024-02-05T23:44:30.585Z,5.48
2024-02-05T23:46:59.348Z,5.52
2024-02-05T23:49:28.351Z,5.54
2024-02-05T23:51:57.286Z,5.58
2024-02-05T23:54:26.069Z,5.61
2024-02-05T23:56:56.164Z,5.61
2024-02-05T23:59:25.708Z,5.60
